Time;durP1;ratioP1;P1;durP2;ratioP2;P2;SDS_P1;SDS_P2;PMS_P1;PMS_P2;Temp;Humidity;BMP_temperature;BMP_pressure;BME280_temperature;BME280_humidity;BME280_pressure;Samples;Min_cycle;Max_cycle;Signal;HPM_P1;HPM_P2
2022/07/02 00:01:17;;;;;;;12.25;4.57;;;;;;;15.83;70.84;101768.75;5109729;28;20086;-58
2022/07/02 00:03:49;;;;;;;14.07;5.10;;;;;;;15.82;70.85;101772.41;5109645;28;20071;-59
2022/07/02 00:06:18;;;;;;;10.88;4.90;;;;;;;15.81;70.51;101776.91;5098643;28;20524;-56
2022/07/02 00:08:45;;;;;;;12.38;4.45;;;;;;;15.80;70.41;101769.06;5096739;28;20048;-57
2022/07/02 00:11:15;;;;;;;12.10;4.93;;;;;;;15.72;71.04;101776.03;5096447;28;20054;-57
2022/07/02 00:13:42;;;;;;;15.63;4.75;;;;;;;15.78;70.51;101771.88;5096492;28;20040;-57
2022/07/02 00:16:11;;;;;;;16.52;4.93;;;;;;;15.71;70.62;101774.34;5096281;28;20058;-57
2022/07/02 00:18:40;;;;;;;13.68;5.10;;;;;;;15.74;69.71;101765.19;5098268;28;20047;-57
2022/07/02 00:21:07;;;;;;;10.10;4.40;;;;;;;15.78;70.33;101766.53;5096243;28;20135;-57
2022/07/02 00:23:34;;;;;;;16.25;5.30;;;;;;;15.85;69.84;101761.38;5096403;28;20044;-58
2022/07/02 00:26:07;;;;;;;15.95;4.75;;;;;;;15.82;70.13;101762.53;5095034;28;20114;-57
2022/07/02 00:28:40;;;;;;;14.90;4.78;;;;;;;15.73;70.84;101767.00;5095676;28;20063;-57
2022/07/02 00:31:07;;;;;;;12.93;4.28;;;;;;;15.66;71.12;101767.81;5095272;28;20413;-57
2022/07/02 00:33:35;;;;;;;11.25;4.63;;;;;;;15.60;71.31;101761.28;5095945;28;20043;-57
2022/07/02 00:36:03;;;;;;;9.70;4.32;;;;;;;15.67;71.36;101767.66;5096177;28;20067;-58
2022/07/02 00:38:30;;;;;;;10.75;4.63;;;;;;;15.65;71.46;101772.31;5095901;28;20486;-57
2022/07/02 00:41:00;;;;;;;13.68;4.88;;;;;;;15.52;71.73;101777.31;5095927;28;20044;-57
2022/07/02 00:43:27;;;;;;;13.20;4.55;;;;;;;15.51;71.44;101771.09;5095551;28;20036;-57
2022/07/02 00:45:56;;;;;;;19.20;5.30;;;;;;;15.50;72.13;101776.63;5095825;28;20405;-58
2022/07/02 00:48:23;;;;;;;15.57;5.30;;;;;;;15.49;72.72;101778.44;5095755;28;20048;-57
2022/07/02 00:50:50;;;;;;;16.15;5.22;;;;;;;15.49;72.51;101772.25;5095292;28;20378;-58
2022/07/02 00:53:16;;;;;;;13.63;5.30;;;;;;;15.52;72.12;101771.97;5095595;28;20048;-57
2022/07/02 00:55:43;;;;;;;12.05;5.10;;;;;;;15.52;72.63;101777.31;5095326;28;20405;-57
2022/07/02 00:58:10;;;;;;;19.30;4.78;;;;;;;15.49;73.03;101775.78;5095884;28;20067;-57
2022/07/02 01:00:37;;;;;;;15.45;5.43;;;;;;;15.50;73.13;101774.78;5094846;28;20113;-57
2022/07/02 01:03:04;;;;;;;14.43;5.35;;;;;;;15.48;73.02;101768.75;5095641;28;20051;-57
2022/07/02 01:05:32;;;;;;;12.07;5.40;;;;;;;15.41;73.03;101770.41;5095617;28;20528;-57
2022/07/02 01:10:48;;;;;;;17.13;5.18;;;;;;;15.39;73.60;101764.38;5095393;28;20056;-57
2022/07/02 01:13:17;;;;;;;15.32;5.65;;;;;;;15.33;73.50;101762.34;5086149;28;20067;-57
2022/07/02 01:15:44;;;;;;;13.38;5.22;;;;;;;15.28;73.76;101761.97;5075057;28;20077;-57
2022/07/02 01:18:17;;;;;;;19.85;5.72;;;;;;;15.27;73.61;101760.31;5073003;28;20045;-57
2022/07/02 01:20:44;;;;;;;12.55;5.18;;;;;;;15.31;73.13;101759.81;5074917;28;20090;-57
2022/07/02 01:23:11;;;;;;;12.52;4.82;;;;;;;15.31;72.63;101759.00;5074992;28;20464;-58
2022/07/02 01:25:38;;;;;;;13.18;4.82;;;;;;;15.26;72.48;101751.47;5074418;28;20482;-57
2022/07/02 01:28:05;;;;;;;12.52;5.03;;;;;;;15.26;73.01;101753.28;5074702;28;20380;-57
2022/07/02 01:30:32;;;;;;;12.35;4.93;;;;;;;15.22;73.58;101752.75;5074387;28;20409;-58
2022/07/02 01:32:59;;;;;;;13.63;4.80;;;;;;;15.15;73.79;101754.41;5074548;28;20064;-57
2022/07/02 01:35:25;;;;;;;14.45;4.72;;;;;;;15.16;74.03;101756.09;5081899;28;20048;-57
2022/07/02 01:37:52;;;;;;;12.32;4.75;;;;;;;15.15;74.07;101755.25;5093358;28;20470;-58
2022/07/02 01:40:19;;;;;;;13.48;4.82;;;;;;;15.14;73.92;101758.09;5094598;28;20050;-58
2022/07/02 01:42:46;;;;;;;16.05;5.28;;;;;;;15.06;74.01;101763.38;5094695;28;20486;-57
2022/07/02 01:45:13;;;;;;;19.52;5.00;;;;;;;15.03;74.91;101766.38;5094830;28;20044;-57
2022/07/02 01:47:39;;;;;;;13.18;4.63;;;;;;;14.98;74.63;101762.31;5094561;28;20044;-57
2022/07/02 01:50:07;;;;;;;12.15;4.60;;;;;;;15.00;74.85;101762.16;5094513;28;20126;-57
2022/07/02 01:52:33;;;;;;;10.82;4.78;;;;;;;15.01;74.71;101763.88;5093287;28;20044;-57
2022/07/02 01:55:01;;;;;;;14.48;4.78;;;;;;;14.88;74.30;101761.63;5094450;28;20044;-57
2022/07/02 01:57:30;;;;;;;13.90;4.50;;;;;;;14.94;74.45;101760.16;5094339;28;20044;-57
2022/07/02 01:59:57;;;;;;;11.02;4.50;;;;;;;14.93;73.99;101764.63;5094482;28;20036;-57
2022/07/02 02:02:24;;;;;;;11.23;4.43;;;;;;;14.95;73.44;101770.69;5094047;28;20040;-57
2022/07/02 02:04:51;;;;;;;12.85;4.70;;;;;;;14.94;72.52;101774.34;5093434;28;20442;-57
2022/07/02 02:07:18;;;;;;;9.30;4.35;;;;;;;14.93;72.97;101771.81;5094135;28;20448;-57
2022/07/02 02:09:44;;;;;;;12.77;5.20;;;;;;;14.84;72.72;101764.75;5076332;28;20398;-57
2022/07/02 02:12:11;;;;;;;12.45;4.72;;;;;;;14.85;72.87;101772.59;5094285;28;20063;-57
2022/07/02 02:14:38;;;;;;;11.18;4.80;;;;;;;14.88;72.52;101774.97;5093967;28;20069;-57
2022/07/02 02:17:05;;;;;;;11.90;4.53;;;;;;;14.86;72.31;101771.63;5094212;28;20052;-57
2022/07/02 02:19:33;;;;;;;13.23;5.15;;;;;;;14.82;72.14;101769.41;5093991;28;20066;-57
2022/07/02 02:22:10;;;;;;;12.60;4.75;;;;;;;14.87;72.11;101778.63;5094128;28;20048;-56
2022/07/02 02:24:37;;;;;;;16.98;4.55;;;;;;;14.76;72.74;101771.72;5094304;28;20079;-56
2022/07/02 02:27:04;;;;;;;10.68;4.60;;;;;;;14.86;72.30;101771.63;5093647;28;20048;-57
2022/07/02 02:29:30;;;;;;;12.50;4.63;;;;;;;14.84;72.39;101775.44;5093884;28;20050;-56
2022/07/02 02:31:57;;;;;;;13.70;5.07;;;;;;;14.85;71.75;101775.28;5093204;28;20048;-56
2022/07/02 02:34:24;;;;;;;10.57;4.38;;;;;;;14.84;72.56;101773.59;5094025;28;20090;-56
2022/07/02 02:36:51;;;;;;;14.50;5.00;;;;;;;14.81;72.17;101768.59;5093837;28;20067;-56
2022/07/02 02:39:17;;;;;;;12.80;4.60;;;;;;;14.77;72.38;101765.38;5093626;28;20040;-56
2022/07/02 02:41:44;;;;;;;9.05;4.32;;;;;;;14.79;71.97;101765.22;5093809;28;20090;-56
2022/07/02 02:44:11;;;;;;;12.55;4.80;;;;;;;14.81;72.07;101763.25;5093395;28;20506;-57
2022/07/02 02:46:38;;;;;;;9.63;4.00;;;;;;;14.79;72.20;101770.56;5093925;28;20054;-56
2022/07/02 02:49:04;;;;;;;14.63;4.57;;;;;;;14.73;72.78;101772.00;5093244;28;20036;-56
2022/07/02 02:51:32;;;;;;;17.08;4.38;;;;;;;14.72;71.98;101765.00;5094016;28;20493;-56
2022/07/02 02:53:59;;;;;;;12.18;4.38;;;;;;;14.75;72.47;101775.38;5092987;28;20083;-56
2022/07/02 02:56:25;;;;;;;13.68;4.50;;;;;;;14.67;72.35;101777.16;5093896;28;20048;-56
2022/07/02 02:58:52;;;;;;;10.05;4.18;;;;;;;14.67;71.88;101774.50;5092294;28;20054;-56
2022/07/02 03:01:18;;;;;;;13.45;4.68;;;;;;;14.70;72.65;101779.53;5093744;28;20072;-57
2022/07/02 03:03:45;;;;;;;13.75;4.40;;;;;;;14.58;72.83;101782.41;5092993;28;20044;-56
2022/07/02 03:06:12;;;;;;;13.55;4.20;;;;;;;14.58;72.70;101777.09;5093583;28;20051;-57
2022/07/02 03:08:38;;;;;;;12.00;4.40;;;;;;;14.59;72.74;101783.28;5093458;28;20047;-57
2022/07/02 03:11:05;;;;;;;12.93;4.45;;;;;;;14.59;72.54;101791.28;5093415;28;20071;-57
2022/07/02 03:13:32;;;;;;;10.57;4.20;;;;;;;14.57;72.98;101791.44;5092332;28;20050;-57
2022/07/02 03:15:58;;;;;;;11.43;4.45;;;;;;;14.55;73.55;101790.72;5113233;28;20097;-56
2022/07/02 03:18:25;;;;;;;10.88;4.20;;;;;;;14.53;73.12;101787.34;5113126;28;20672;-57
2022/07/02 03:20:54;;;;;;;11.98;4.18;;;;;;;14.51;73.06;101785.84;5113373;28;20626;-57
2022/07/02 03:23:20;;;;;;;12.38;5.07;;;;;;;14.40;74.02;101785.06;5113894;28;20496;-57
2022/07/02 03:25:47;;;;;;;14.07;4.70;;;;;;;14.49;74.29;101790.50;5112470;28;20085;-57
2022/07/02 03:28:14;;;;;;;11.00;4.50;;;;;;;14.45;73.75;101797.16;5113662;28;20081;-57
2022/07/02 03:30:40;;;;;;;11.05;4.22;;;;;;;14.46;73.96;101796.13;5113415;28;20047;-57
2022/07/02 03:33:07;;;;;;;11.23;4.50;;;;;;;14.46;74.11;101797.00;5113233;28;20039;-57
2022/07/02 03:35:34;;;;;;;15.15;4.78;;;;;;;14.40;74.50;101789.59;5104548;28;20067;-56
2022/07/02 03:38:03;;;;;;;11.25;4.88;;;;;;;14.48;74.00;101794.16;5093105;28;20066;-57
2022/07/02 03:40:31;;;;;;;10.40;4.50;;;;;;;14.45;74.44;101800.66;5095329;28;20071;-57
2022/07/02 03:42:57;;;;;;;14.38;4.47;;;;;;;14.46;74.81;101793.47;5097097;28;20539;-57
2022/07/02 03:45:24;;;;;;;14.63;4.63;;;;;;;14.44;75.07;101798.13;5095421;28;20142;-57
2022/07/02 03:47:51;;;;;;;10.50;4.53;;;;;;;14.43;74.88;101799.13;5096939;28;20130;-57
2022/07/02 03:50:18;;;;;;;12.18;5.03;;;;;;;14.49;74.87;101793.16;5096594;28;20394;-57
2022/07/02 03:52:44;;;;;;;12.80;4.80;;;;;;;14.39;75.25;101793.25;5097025;28;20044;-57
2022/07/02 03:55:11;;;;;;;12.57;4.80;;;;;;;14.48;75.25;101792.34;5096316;28;20490;-57
2022/07/02 03:57:38;;;;;;;16.48;5.05;;;;;;;14.46;75.55;101796.13;5096897;28;20097;-57
2022/07/02 04:00:07;;;;;;;16.63;5.25;;;;;;;14.48;75.34;101792.34;5096358;28;20036;-57
2022/07/02 04:02:48;;;;;;;14.82;5.60;;;;;;;14.45;75.93;101794.47;5111675;27;20749;-56
2022/07/02 04:05:15;;;;;;;15.95;5.20;;;;;;;14.43;76.13;101796.47;5111235;28;20035;-56
2022/07/02 04:07:42;;;;;;;12.35;4.75;;;;;;;14.45;76.07;101799.81;5111095;28;20048;-56
2022/07/02 04:10:08;;;;;;;11.60;4.88;;;;;;;14.46;75.86;101799.66;5111576;28;20089;-56
2022/07/02 04:12:35;;;;;;;13.60;5.00;;;;;;;14.40;76.34;101797.59;5111259;28;20063;-56
2022/07/02 04:15:02;;;;;;;15.15;5.47;;;;;;;14.34;76.40;101800.88;5111449;28;20136;-56
2022/07/02 04:17:29;;;;;;;11.93;5.03;;;;;;;14.46;76.37;101801.47;5111038;28;20048;-56
2022/07/02 04:19:56;;;;;;;11.77;4.90;;;;;;;14.44;76.84;101798.97;5111117;28;20056;-57
2022/07/02 04:22:24;;;;;;;13.90;5.00;;;;;;;14.48;76.59;101797.69;5111126;28;20202;-57
2022/07/02 04:24:50;;;;;;;12.57;5.07;;;;;;;14.51;76.35;101800.03;5110763;28;20036;-56
2022/07/02 04:27:18;;;;;;;11.43;5.00;;;;;;;14.52;76.70;101807.06;5111237;28;20078;-57
2022/07/02 04:29:45;;;;;;;14.27;5.10;;;;;;;14.49;76.63;101803.84;5110631;28;20043;-57
2022/07/02 04:32:11;;;;;;;12.38;5.20;;;;;;;14.49;76.50;101802.00;5111231;28;20051;-57
2022/07/02 04:34:38;;;;;;;13.23;5.00;;;;;;;14.55;76.64;101806.75;5109928;28;20404;-57
2022/07/02 04:37:05;;;;;;;12.30;5.07;;;;;;;14.59;76.52;101802.81;5111131;28;20047;-57
2022/07/02 04:39:32;;;;;;;13.73;5.28;;;;;;;14.59;76.71;101810.81;5110698;28;20044;-57
2022/07/02 04:41:58;;;;;;;17.13;5.32;;;;;;;14.64;76.81;101802.31;5111010;28;20082;-57
2022/07/02 04:44:26;;;;;;;11.98;5.20;;;;;;;14.61;77.07;101809.81;5110712;28;20086;-57
2022/07/02 04:46:53;;;;;;;11.68;4.70;;;;;;;14.62;76.50;101803.47;5110386;28;20040;-57
2022/07/02 04:49:20;;;;;;;12.15;4.85;;;;;;;14.70;76.53;101796.38;5110629;28;20392;-57
2022/07/02 04:51:46;;;;;;;16.05;5.25;;;;;;;14.70;76.51;101804.41;5110322;28;20497;-57
2022/07/02 04:54:13;;;;;;;11.63;4.65;;;;;;;14.66;76.94;101799.50;5110575;28;20078;-57
2022/07/02 04:56:40;;;;;;;15.38;5.28;;;;;;;14.63;76.77;101805.19;5110542;28;20108;-57
2022/07/02 04:59:06;;;;;;;13.77;5.10;;;;;;;14.67;77.19;101809.22;5110634;28;20051;-57
2022/07/02 05:01:33;;;;;;;11.13;5.00;;;;;;;14.67;76.76;101807.38;5109670;28;20130;-57
2022/07/02 05:04:00;;;;;;;13.88;5.15;;;;;;;14.76;76.82;101808.28;5110156;28;20493;-57
2022/07/02 05:06:26;;;;;;;12.32;4.53;;;;;;;14.75;77.18;101804.78;5110459;28;20096;-57
2022/07/02 05:08:53;;;;;;;14.63;5.35;;;;;;;14.76;77.79;101805.59;5109890;28;20058;-57
2022/07/02 05:11:20;;;;;;;16.63;5.20;;;;;;;14.85;77.22;101804.66;5110152;28;20039;-57
2022/07/02 05:13:47;;;;;;;19.75;5.07;;;;;;;14.82;77.76;101807.63;5096639;28;20052;-57
2022/07/02 05:16:16;;;;;;;19.27;5.40;;;;;;;14.75;77.73;101799.44;5080291;28;20048;-57
2022/07/02 05:18:43;;;;;;;17.08;5.22;;;;;;;14.75;77.67;101799.44;5076153;28;20064;-57
2022/07/02 05:21:10;;;;;;;14.30;5.10;;;;;;;14.83;76.97;101800.47;5075911;28;20071;-57
2022/07/02 05:23:39;;;;;;;14.30;5.35;;;;;;;14.86;76.63;101802.81;5074991;28;20048;-57
2022/07/02 05:26:07;;;;;;;17.95;5.25;;;;;;;15.00;76.90;101802.25;5075634;28;20033;-57
2022/07/02 05:28:34;;;;;;;12.30;5.28;;;;;;;15.04;76.99;101800.94;5076139;28;20604;-57
2022/07/02 05:31:00;;;;;;;11.73;5.63;;;;;;;14.97;76.53;101800.75;5075251;28;20037;-57
2022/07/02 05:33:27;;;;;;;12.98;5.50;;;;;;;15.04;77.34;101800.94;5076242;28;20044;-57
2022/07/02 05:35:54;;;;;;;14.48;6.78;;;;;;;15.06;76.46;101806.97;5087717;28;20040;-57
2022/07/02 05:38:21;;;;;;;14.80;5.75;;;;;;;15.14;77.11;101809.69;5096220;28;20036;-57
2022/07/02 05:40:47;;;;;;;14.50;5.55;;;;;;;15.16;76.69;101814.88;5095468;28;20043;-57
2022/07/02 05:43:14;;;;;;;13.60;5.70;;;;;;;15.14;76.89;101814.22;5096145;28;20432;-57
2022/07/02 05:45:41;;;;;;;16.52;5.57;;;;;;;15.15;76.79;101813.19;5095978;28;20051;-57
2022/07/02 05:48:09;;;;;;;10.43;5.68;;;;;;;15.16;76.80;101815.72;5095533;28;20044;-57
2022/07/02 05:50:36;;;;;;;11.60;5.53;;;;;;;15.26;75.95;101814.75;5095701;28;20044;-57
2022/07/02 05:53:03;;;;;;;14.65;6.53;;;;;;;15.25;76.86;101819.28;5095764;28;20036;-57
2022/07/02 05:55:30;;;;;;;14.93;5.97;;;;;;;15.29;76.82;101819.78;5095948;28;20165;-57
2022/07/02 05:57:56;;;;;;;19.13;5.72;;;;;;;15.39;76.60;101812.50;5095306;28;20040;-57
2022/07/02 06:00:23;;;;;;;21.48;6.43;;;;;;;15.41;75.64;101828.38;5095555;28;20494;-56
2022/07/02 06:02:50;;;;;;;19.58;5.85;;;;;;;15.45;76.06;101830.56;5095146;28;20040;-57
2022/07/02 06:08:04;;;;;;;15.55;5.47;;;;;;;15.57;75.33;101823.09;5095438;28;20123;-57
2022/07/02 06:10:30;;;;;;;14.65;5.80;;;;;;;15.55;75.00;101827.75;5095481;28;20044;-57
2022/07/02 06:12:57;;;;;;;15.13;5.75;;;;;;;15.63;73.73;101827.81;5095408;28;20044;-57
2022/07/02 06:15:24;;;;;;;18.75;5.72;;;;;;;15.68;75.11;101827.31;5095331;28;20051;-57
2022/07/02 06:17:50;;;;;;;15.15;5.30;;;;;;;15.70;75.83;101828.03;5095380;28;20055;-57
2022/07/02 06:20:17;;;;;;;15.77;5.38;;;;;;;15.68;74.78;101832.66;5094941;28;20379;-57
2022/07/02 06:22:47;;;;;;;12.85;5.50;;;;;;;15.76;74.35;101832.75;5095333;28;20044;-57
2022/07/02 06:25:15;;;;;;;12.05;4.95;;;;;;;15.78;73.71;101830.75;5093367;28;20044;-56
2022/07/02 06:27:41;;;;;;;14.77;4.25;;;;;;;15.98;73.52;101838.50;5094945;28;20052;-56
2022/07/02 06:30:10;;;;;;;10.88;4.63;;;;;;;16.04;74.34;101837.84;5094351;28;20044;-56
2022/07/02 06:32:37;;;;;;;14.45;4.80;;;;;;;15.98;74.19;101833.16;5094924;28;20048;-56
2022/07/02 06:35:05;;;;;;;11.10;4.88;;;;;;;15.99;72.31;101840.16;5095300;28;20044;-56
2022/07/02 06:37:31;;;;;;;14.07;5.22;;;;;;;16.11;72.29;101836.19;5094846;28;20071;-56
2022/07/02 06:39:58;;;;;;;12.20;5.25;;;;;;;16.17;71.60;101837.38;5094945;28;20081;-56
2022/07/02 06:42:28;;;;;;;11.07;4.75;;;;;;;16.26;72.24;101836.38;5094886;28;20071;-57
2022/07/02 06:44:58;;;;;;;15.40;4.82;;;;;;;16.27;71.29;101835.38;5094675;28;20059;-56
2022/07/02 06:47:26;;;;;;;12.20;4.88;;;;;;;16.32;73.04;101835.75;5095004;28;20047;-56
2022/07/02 06:49:55;;;;;;;11.60;4.80;;;;;;;16.37;71.46;101835.22;5094615;28;20072;-56
2022/07/02 06:52:23;;;;;;;9.55;4.60;;;;;;;16.39;72.26;101833.22;5094709;28;20058;-56
2022/07/02 06:54:50;;;;;;;11.13;4.82;;;;;;;16.55;70.94;101835.06;5094571;28;20076;-56
2022/07/02 06:57:16;;;;;;;12.90;4.78;;;;;;;16.60;70.26;101835.41;5094230;28;20427;-56
2022/07/02 06:59:45;;;;;;;11.63;4.63;;;;;;;16.59;70.12;101833.72;5094258;28;20036;-57
2022/07/02 07:02:12;;;;;;;13.68;4.80;;;;;;;16.63;70.11;101833.25;5093901;28;20065;-57
2022/07/02 07:04:41;;;;;;;15.13;4.35;;;;;;;16.73;69.77;101835.75;5093312;28;20093;-56
2022/07/02 07:07:10;;;;;;;11.95;4.40;;;;;;;16.69;69.31;101834.41;5092879;28;20044;-57
2022/07/02 07:09:37;;;;;;;9.90;4.25;;;;;;;16.81;70.08;101835.75;5089800;28;20375;-57
2022/07/02 07:12:04;;;;;;;12.30;4.75;;;;;;;16.88;69.59;101828.75;5093637;28;20501;-57
2022/07/02 07:14:33;;;;;;;9.27;3.85;;;;;;;16.93;68.69;101822.03;5092910;28;20444;-57
2022/07/02 07:17:00;;;;;;;10.63;4.32;;;;;;;17.00;68.96;101828.38;5073214;28;20513;-57
2022/07/02 07:19:27;;;;;;;11.65;4.50;;;;;;;17.03;69.54;101820.84;5073265;28;20087;-57
2022/07/02 07:21:53;;;;;;;11.65;4.22;;;;;;;16.99;68.62;101827.56;5072503;28;20128;-57
2022/07/02 07:24:20;;;;;;;12.82;4.25;;;;;;;17.07;69.21;101827.53;5073657;28;20049;-57
2022/07/02 07:26:48;;;;;;;14.43;4.40;;;;;;;17.12;68.47;101828.84;5073488;28;20042;-58
2022/07/02 07:29:15;;;;;;;13.30;4.68;;;;;;;17.16;68.33;101817.63;5073455;28;20076;-57
2022/07/02 07:31:42;;;;;;;13.00;4.05;;;;;;;17.23;68.96;101817.78;5073211;28;20032;-57
2022/07/02 07:34:09;;;;;;;14.75;4.82;;;;;;;17.30;68.24;101825.97;5071495;28;20048;-59
2022/07/02 07:36:37;;;;;;;14.20;4.22;;;;;;;17.37;67.39;101825.13;5090845;28;20112;-58
2022/07/02 07:39:05;;;;;;;11.75;4.22;;;;;;;17.37;65.93;101817.06;5093704;28;20044;-56
2022/07/02 07:41:32;;;;;;;16.85;4.40;;;;;;;17.60;65.95;101816.31;5093624;28;20093;-57
2022/07/02 07:44:00;;;;;;;11.35;3.92;;;;;;;17.65;66.05;101819.31;5093655;28;20073;-56
2022/07/02 07:46:27;;;;;;;10.68;3.75;;;;;;;17.72;65.56;101822.97;5093392;28;20101;-56
2022/07/02 07:48:54;;;;;;;12.80;3.75;;;;;;;17.75;65.39;101817.22;5092166;28;20139;-56
2022/07/02 07:51:21;;;;;;;12.38;3.60;;;;;;;17.92;63.71;101823.41;5093655;28;20093;-56
2022/07/02 07:53:48;;;;;;;13.02;3.70;;;;;;;17.96;63.27;101823.88;5093288;28;20036;-56
2022/07/02 07:56:18;;;;;;;12.55;3.30;;;;;;;18.09;62.34;101820.63;5093471;28;20489;-56
2022/07/02 07:58:46;;;;;;;15.48;3.30;;;;;;;18.22;61.77;101820.88;5093317;28;20051;-56
2022/07/02 08:01:13;;;;;;;9.63;3.35;;;;;;;18.25;60.87;101817.00;5093139;28;20074;-58
2022/07/02 08:03:40;;;;;;;21.17;3.90;;;;;;;18.38;61.07;101815.38;5092828;28;20036;-59
2022/07/02 08:06:06;;;;;;;8.70;3.20;;;;;;;18.53;60.08;101823.47;5093538;28;20048;-57
2022/07/02 08:08:33;;;;;;;12.43;3.30;;;;;;;18.62;60.89;101821.56;5093473;28;20048;-58
2022/07/02 08:11:00;;;;;;;14.38;3.00;;;;;;;18.64;61.03;101824.91;5093487;28;20113;-59
2022/07/02 08:13:27;;;;;;;12.38;3.08;;;;;;;18.69;60.61;101821.69;5092968;28;20490;-56
2022/07/02 08:15:53;;;;;;;16.63;3.10;;;;;;;18.78;58.94;101823.28;5093037;28;20068;-56
2022/07/02 08:18:20;;;;;;;9.80;2.95;;;;;;;18.90;57.58;101821.84;5093212;28;20119;-58
2022/07/02 08:20:47;;;;;;;9.70;2.75;;;;;;;19.10;56.43;101818.63;5091932;28;20445;-56
2022/07/02 08:23:14;;;;;;;10.07;2.80;;;;;;;19.08;55.35;101818.81;5093090;28;20051;-56
2022/07/02 08:25:41;;;;;;;13.68;3.20;;;;;;;19.04;55.68;101822.88;5093319;28;20044;-57
2022/07/02 08:28:09;;;;;;;12.85;3.10;;;;;;;19.04;57.94;101820.19;5093136;28;20397;-57
2022/07/02 08:30:36;;;;;;;13.40;2.70;;;;;;;19.20;57.09;101813.81;5092792;28;20052;-57
2022/07/02 08:33:03;;;;;;;14.57;3.88;;;;;;;19.33;56.75;101810.47;5093189;28;20052;-58
2022/07/02 08:35:30;;;;;;;13.18;2.80;;;;;;;19.43;57.06;101804.78;5093361;28;20070;-58
2022/07/02 08:37:57;;;;;;;13.32;3.30;;;;;;;19.70;55.58;101803.28;5082173;28;20040;-59
2022/07/02 08:40:27;;;;;;;12.73;2.95;;;;;;;19.93;52.45;101803.97;5089042;28;20070;-57
2022/07/02 08:42:55;;;;;;;9.70;2.78;;;;;;;19.92;53.83;101802.34;5090724;28;20086;-57
2022/07/02 08:45:23;;;;;;;12.68;2.60;;;;;;;19.89;51.28;101801.88;5078461;28;20075;-57
2022/07/02 08:47:52;;;;;;;9.90;2.67;;;;;;;19.89;53.02;101796.50;5096465;28;20082;-58
2022/07/02 08:50:21;;;;;;;13.95;2.30;;;;;;;20.16;52.57;101794.91;5104091;28;20044;-58
2022/07/02 08:52:51;;;;;;;10.32;2.10;;;;;;;20.25;51.23;101795.63;5096920;28;20038;-57
2022/07/02 08:55:19;;;;;;;6.43;1.50;;;;;;;20.39;44.59;101788.47;5107326;28;20043;-57
2022/07/02 08:57:50;;;;;;;6.93;1.77;;;;;;;20.35;46.19;101789.91;5082143;28;20037;-69
2022/07/02 09:00:25;;;;;;;9.85;2.28;;;;;;;20.45;49.66;101785.84;5075639;28;20167;-64
2022/07/02 09:02:57;;;;;;;8.68;1.80;;;;;;;20.60;45.32;101785.75;5092497;28;20032;-58
2022/07/02 09:05:26;;;;;;;7.45;1.70;;;;;;;20.91;41.79;101787.25;5087297;28;20094;-58
2022/07/02 09:07:55;;;;;;;7.85;2.00;;;;;;;21.09;39.64;101790.28;5091521;28;20066;-57
2022/07/02 09:10:23;;;;;;;6.05;1.58;;;;;;;21.12;40.34;101789.06;5074061;28;20567;-57
2022/07/02 09:12:53;;;;;;;7.03;2.28;;;;;;;21.29;40.69;101779.59;5076131;28;20040;-57
2022/07/02 09:15:20;;;;;;;9.60;2.40;;;;;;;21.37;41.34;101778.59;5075614;28;20064;-57
2022/07/02 09:17:47;;;;;;;8.90;2.42;;;;;;;21.40;42.45;101777.38;5093187;28;20070;-57
2022/07/02 09:20:14;;;;;;;9.00;2.20;;;;;;;21.52;43.46;101769.53;5079651;28;20048;-58
2022/07/02 09:22:45;;;;;;;6.38;1.63;;;;;;;21.70;39.60;101771.69;5090734;28;20051;-57
2022/07/02 09:25:16;;;;;;;7.43;1.80;;;;;;;21.62;40.83;101773.53;5094749;28;20091;-57
2022/07/02 09:27:44;;;;;;;9.63;1.90;;;;;;;21.76;41.28;101768.19;5096202;28;20040;-57
2022/07/02 09:30:15;;;;;;;8.32;1.77;;;;;;;21.72;40.73;101777.72;5094442;28;20312;-57
2022/07/02 09:32:45;;;;;;;4.20;1.30;;;;;;;22.01;36.58;101779.25;5095674;28;20401;-57
2022/07/02 09:35:21;;;;;;;6.05;2.22;;;;;;;21.87;37.69;101767.59;5093402;28;20093;-57
2022/07/02 09:37:49;;;;;;;5.60;1.65;;;;;;;21.99;37.92;101763.25;5074583;28;20511;-57
2022/07/02 09:40:17;;;;;;;7.10;1.60;;;;;;;22.05;36.89;101761.59;5085988;28;20434;-57
2022/07/02 09:42:47;;;;;;;5.25;1.73;;;;;;;21.92;38.20;101764.25;5083356;28;20111;-57
2022/07/02 09:45:15;;;;;;;6.30;1.67;;;;;;;21.86;40.03;101765.91;5095363;28;20043;-57
2022/07/02 09:47:48;;;;;;;6.22;1.70;;;;;;;22.02;36.68;101765.53;5095671;28;20059;-57
2022/07/02 09:50:18;;;;;;;8.95;1.73;;;;;;;22.03;35.83;101766.38;5079070;28;20049;-57
2022/07/02 09:52:52;;;;;;;7.88;1.70;;;;;;;22.24;35.78;101751.84;5090134;28;20045;-57
2022/07/02 09:55:21;;;;;;;5.80;1.42;;;;;;;22.19;35.32;101765.13;5089272;28;20078;-57
2022/07/02 09:57:50;;;;;;;8.73;1.70;;;;;;;22.21;36.67;101761.22;5088010;28;20127;-57
2022/07/02 10:00:17;;;;;;;13.23;1.73;;;;;;;22.19;36.68;101757.88;5091167;28;20036;-57
2022/07/02 10:02:44;;;;;;;10.60;1.70;;;;;;;22.42;36.02;101759.38;5094786;28;20098;-57
2022/07/02 10:05:11;;;;;;;7.90;1.77;;;;;;;22.38;35.90;101758.13;5092337;28;20131;-59
2022/07/02 10:07:38;;;;;;;11.07;3.25;;;;;;;22.46;37.54;101749.78;5094976;28;20097;-58
2022/07/02 10:10:05;;;;;;;32.03;14.63;;;;;;;22.70;37.71;101751.03;5094282;28;20512;-56
2022/07/02 10:12:33;;;;;;;6.57;1.95;;;;;;;23.08;36.39;101750.34;5091930;28;20047;-56
2022/07/02 10:15:04;;;;;;;6.85;1.60;;;;;;;23.08;33.52;101742.22;5089090;28;20041;-56
2022/07/02 10:17:33;;;;;;;8.40;1.67;;;;;;;22.95;34.81;101726.81;5083678;28;20036;-56
2022/07/02 10:20:02;;;;;;;6.38;1.88;;;;;;;23.15;35.61;101734.09;5094800;28;20101;-56
2022/07/02 10:22:30;;;;;;;6.38;1.70;;;;;;;23.07;33.23;101731.63;5092458;28;20029;-56
2022/07/02 10:24:58;;;;;;;6.78;1.60;;;;;;;23.06;36.83;101730.78;5094207;28;20048;-56
2022/07/02 10:27:25;;;;;;;6.55;1.60;;;;;;;23.30;37.62;101713.00;5091219;28;20076;-56
2022/07/02 10:29:52;;;;;;;7.40;1.63;;;;;;;23.63;34.43;101714.72;5087826;28;20052;-56
2022/07/02 10:32:32;;;;;;;7.60;1.80;;;;;;;23.51;34.40;101709.13;5074976;28;20064;-56
2022/07/02 10:35:16;;;;;;;6.78;1.55;;;;;;;23.79;34.13;101715.22;5096529;28;20089;-53
2022/07/02 10:37:44;;;;;;;10.10;1.92;;;;;;;23.76;32.91;101711.91;5093372;28;20131;-51
2022/07/02 10:40:18;;;;;;;8.32;1.60;;;;;;;23.57;33.63;101704.72;5091596;28;20040;-52
2022/07/02 10:42:49;;;;;;;6.28;1.80;;;;;;;23.42;33.21;101705.03;5083063;28;20042;-49
2022/07/02 10:45:18;;;;;;;6.18;1.58;;;;;;;23.25;35.94;101704.69;5089883;28;20489;-52
2022/07/02 10:48:01;;;;;;;10.65;1.65;;;;;;;23.23;35.24;101695.97;5093821;28;20040;-51
2022/07/02 10:53:22;;;;;;;6.80;2.03;;;;;;;24.07;35.75;101685.06;5090626;27;20370;-54
2022/07/02 10:58:32;;;;;;;4.28;1.40;;;;;;;24.56;34.19;101685.22;5111168;27;20763;-52
2022/07/02 11:01:17;;;;;;;4.00;1.45;;;;;;;24.99;34.04;101682.44;5111117;28;20528;-52
2022/07/02 11:03:57;;;;;;;7.22;1.65;;;;;;;25.15;32.72;101688.31;5109721;28;20675;-53
2022/07/02 11:06:26;;;;;;;7.90;1.63;;;;;;;24.83;31.63;101685.78;5111215;28;20048;-54
2022/07/02 11:08:56;;;;;;;4.78;1.42;;;;;;;24.95;34.16;101680.44;5110218;28;20063;-51
2022/07/02 11:14:17;;;;;;;7.20;1.60;;;;;;;25.22;32.12;101683.63;5111400;27;20372;-51
2022/07/02 11:16:49;;;;;;;6.05;1.58;;;;;;;25.31;33.04;101670.63;5107579;28;20744;-51
2022/07/02 11:21:55;;;;;;;6.07;1.35;;;;;;;25.48;31.90;101677.84;5110430;27;20355;-50
2022/07/02 11:24:27;;;;;;;5.18;1.63;;;;;;;25.35;32.23;101675.34;5111089;28;20055;-51
2022/07/02 11:26:54;;;;;;;6.53;1.40;;;;;;;25.38;32.55;101663.19;5109856;28;20444;-51
2022/07/02 11:29:21;;;;;;;6.43;1.60;;;;;;;25.36;32.00;101666.13;5110849;28;20405;-52
2022/07/02 11:31:50;;;;;;;4.97;1.42;;;;;;;25.29;34.13;101665.41;5110286;28;20050;-52
2022/07/02 11:34:21;;;;;;;12.70;1.80;;;;;;;25.38;32.83;101660.47;5111041;28;20048;-51
2022/07/02 11:36:48;;;;;;;7.78;1.70;;;;;;;25.37;33.64;101664.25;5110817;28;20044;-52
2022/07/02 11:39:17;;;;;;;7.20;1.58;;;;;;;25.56;31.51;101663.13;5109852;28;20051;-50